sensor_id;sensor_type;location;lat;lon;timestamp;P1;durP1;ratioP1;P2;durP2;ratioP2
78053;SDS011;67726;45.636;11.752;2023-03-01T00:01:26;16.87;;;8.17;;
78053;SDS011;67726;45.636;11.752;2023-03-01T00:03:53;17.60;;;8.73;;
78053;SDS011;67726;45.636;11.752;2023-03-01T00:06:20;18.08;;;8.77;;
78053;SDS011;67726;45.636;11.752;2023-03-01T00:08:46;18.60;;;9.18;;
78053;SDS011;67726;45.636;11.752;2023-03-01T00:11:16;21.83;;;9.70;;
78053;SDS011;67726;45.636;11.752;2023-03-01T00:13:44;20.23;;;10.07;;
78053;SDS011;67726;45.636;11.752;2023-03-01T00:16:15;18.38;;;9.15;;
78053;SDS011;67726;45.636;11.752;2023-03-01T00:18:43;20.80;;;9.93;;
78053;SDS011;67726;45.636;11.752;2023-03-01T00:21:08;21.58;;;10.30;;
78053;SDS011;67726;45.636;11.752;2023-03-01T00:23:34;19.93;;;9.10;;
78053;SDS011;67726;45.636;11.752;2023-03-01T00:26:00;23.65;;;10.57;;
78053;SDS011;67726;45.636;11.752;2023-03-01T00:28:26;18.92;;;9.63;;
78053;SDS011;67726;45.636;11.752;2023-03-01T00:30:52;21.33;;;10.10;;
78053;SDS011;67726;45.636;11.752;2023-03-01T00:33:18;19.73;;;9.18;;
78053;SDS011;67726;45.636;11.752;2023-03-01T00:35:43;18.17;;;9.50;;
78053;SDS011;67726;45.636;11.752;2023-03-01T00:38:09;23.95;;;10.95;;
78053;SDS011;67726;45.636;11.752;2023-03-01T00:40:35;27.30;;;10.85;;
78053;SDS011;67726;45.636;11.752;2023-03-01T00:43:02;29.40;;;11.13;;
78053;SDS011;67726;45.636;11.752;2023-03-01T00:45:28;23.40;;;10.38;;
78053;SDS011;67726;45.636;11.752;2023-03-01T00:47:55;20.92;;;9.50;;
78053;SDS011;67726;45.636;11.752;2023-03-01T00:50:21;21.75;;;9.25;;
78053;SDS011;67726;45.636;11.752;2023-03-01T00:52:51;23.03;;;10.63;;
78053;SDS011;67726;45.636;11.752;2023-03-01T00:55:17;21.65;;;9.48;;
78053;SDS011;67726;45.636;11.752;2023-03-01T00:57:43;21.43;;;10.97;;
78053;SDS011;67726;45.636;11.752;2023-03-01T01:00:09;22.55;;;10.10;;
78053;SDS011;67726;45.636;11.752;2023-03-01T01:02:36;22.63;;;11.20;;
78053;SDS011;67726;45.636;11.752;2023-03-01T01:05:03;25.15;;;10.68;;
78053;SDS011;67726;45.636;11.752;2023-03-01T01:07:29;24.48;;;11.30;;
78053;SDS011;67726;45.636;11.752;2023-03-01T01:09:55;25.25;;;11.73;;
78053;SDS011;67726;45.636;11.752;2023-03-01T01:12:21;23.50;;;11.03;;
78053;SDS011;67726;45.636;11.752;2023-03-01T01:14:46;23.88;;;10.68;;
78053;SDS011;67726;45.636;11.752;2023-03-01T01:17:12;24.20;;;10.80;;
78053;SDS011;67726;45.636;11.752;2023-03-01T01:19:38;23.10;;;10.63;;
78053;SDS011;67726;45.636;11.752;2023-03-01T01:22:03;25.55;;;10.85;;
78053;SDS011;67726;45.636;11.752;2023-03-01T01:24:29;24.20;;;10.77;;
78053;SDS011;67726;45.636;11.752;2023-03-01T01:26:55;22.13;;;10.88;;
78053;SDS011;67726;45.636;11.752;2023-03-01T01:29:20;25.27;;;11.27;;
78053;SDS011;67726;45.636;11.752;2023-03-01T01:31:46;25.77;;;10.38;;
78053;SDS011;67726;45.636;11.752;2023-03-01T01:34:13;21.60;;;10.70;;
78053;SDS011;67726;45.636;11.752;2023-03-01T01:36:40;23.08;;;11.60;;
78053;SDS011;67726;45.636;11.752;2023-03-01T01:39:06;23.25;;;10.75;;
78053;SDS011;67726;45.636;11.752;2023-03-01T01:41:32;25.43;;;12.27;;
78053;SDS011;67726;45.636;11.752;2023-03-01T01:46:50;24.48;;;11.43;;
78053;SDS011;67726;45.636;11.752;2023-03-01T01:52:00;24.23;;;11.65;;
78053;SDS011;67726;45.636;11.752;2023-03-01T01:54:36;30.33;;;11.90;;
78053;SDS011;67726;45.636;11.752;2023-03-01T01:57:23;28.60;;;12.00;;
78053;SDS011;67726;45.636;11.752;2023-03-01T01:59:55;30.13;;;11.55;;
78053;SDS011;67726;45.636;11.752;2023-03-01T02:02:24;26.10;;;11.93;;
78053;SDS011;67726;45.636;11.752;2023-03-01T02:04:51;26.58;;;12.18;;
78053;SDS011;67726;45.636;11.752;2023-03-01T02:07:25;26.13;;;10.97;;
78053;SDS011;67726;45.636;11.752;2023-03-01T02:09:51;25.95;;;11.35;;
78053;SDS011;67726;45.636;11.752;2023-03-01T02:12:18;24.65;;;10.73;;
78053;SDS011;67726;45.636;11.752;2023-03-01T02:14:46;25.33;;;10.98;;
78053;SDS011;67726;45.636;11.752;2023-03-01T02:17:12;27.20;;;10.90;;
78053;SDS011;67726;45.636;11.752;2023-03-01T02:22:24;25.27;;;10.95;;
78053;SDS011;67726;45.636;11.752;2023-03-01T02:27:38;22.65;;;11.13;;
78053;SDS011;67726;45.636;11.752;2023-03-01T02:30:12;22.97;;;10.03;;
78053;SDS011;67726;45.636;11.752;2023-03-01T02:32:39;28.30;;;11.25;;
78053;SDS011;67726;45.636;11.752;2023-03-01T02:35:07;24.90;;;11.98;;
78053;SDS011;67726;45.636;11.752;2023-03-01T02:37:38;24.63;;;10.52;;
78053;SDS011;67726;45.636;11.752;2023-03-01T02:40:07;23.00;;;10.93;;
78053;SDS011;67726;45.636;11.752;2023-03-01T02:42:51;23.58;;;10.95;;
78053;SDS011;67726;45.636;11.752;2023-03-01T02:45:20;23.20;;;10.18;;
78053;SDS011;67726;45.636;11.752;2023-03-01T02:47:46;24.20;;;10.50;;
78053;SDS011;67726;45.636;11.752;2023-03-01T02:50:19;21.60;;;10.03;;
78053;SDS011;67726;45.636;11.752;2023-03-01T02:53:14;23.77;;;11.00;;
78053;SDS011;67726;45.636;11.752;2023-03-01T02:55:46;27.27;;;11.60;;
78053;SDS011;67726;45.636;11.752;2023-03-01T02:58:13;27.15;;;11.98;;
78053;SDS011;67726;45.636;11.752;2023-03-01T03:00:40;21.67;;;10.33;;
78053;SDS011;67726;45.636;11.752;2023-03-01T03:03:20;23.50;;;11.48;;
78053;SDS011;67726;45.636;11.752;2023-03-01T03:05:47;21.40;;;9.80;;
78053;SDS011;67726;45.636;11.752;2023-03-01T03:08:13;24.73;;;10.60;;
78053;SDS011;67726;45.636;11.752;2023-03-01T03:10:41;20.52;;;9.43;;
78053;SDS011;67726;45.636;11.752;2023-03-01T03:13:11;19.60;;;9.77;;
78053;SDS011;67726;45.636;11.752;2023-03-01T03:15:38;24.25;;;10.55;;
78053;SDS011;67726;45.636;11.752;2023-03-01T03:18:06;19.17;;;9.15;;
78053;SDS011;67726;45.636;11.752;2023-03-01T03:20:34;21.23;;;9.75;;
78053;SDS011;67726;45.636;11.752;2023-03-01T03:23:01;19.08;;;8.80;;
78053;SDS011;67726;45.636;11.752;2023-03-01T03:25:27;20.27;;;9.90;;
78053;SDS011;67726;45.636;11.752;2023-03-01T03:27:54;22.77;;;10.32;;
78053;SDS011;67726;45.636;11.752;2023-03-01T03:30:31;21.75;;;10.48;;
78053;SDS011;67726;45.636;11.752;2023-03-01T03:32:58;22.85;;;10.38;;
78053;SDS011;67726;45.636;11.752;2023-03-01T03:35:25;20.33;;;9.63;;
78053;SDS011;67726;45.636;11.752;2023-03-01T03:37:55;22.27;;;9.73;;
78053;SDS011;67726;45.636;11.752;2023-03-01T03:40:38;19.77;;;9.60;;
78053;SDS011;67726;45.636;11.752;2023-03-01T03:43:06;19.98;;;9.65;;
78053;SDS011;67726;45.636;11.752;2023-03-01T03:45:34;17.45;;;9.15;;
78053;SDS011;67726;45.636;11.752;2023-03-01T03:48:00;19.90;;;8.63;;
78053;SDS011;67726;45.636;11.752;2023-03-01T03:50:27;17.65;;;8.30;;
78053;SDS011;67726;45.636;11.752;2023-03-01T03:52:53;18.00;;;9.20;;
78053;SDS011;67726;45.636;11.752;2023-03-01T03:55:19;19.63;;;8.60;;
78053;SDS011;67726;45.636;11.752;2023-03-01T03:57:45;18.02;;;8.60;;
78053;SDS011;67726;45.636;11.752;2023-03-01T04:00:16;18.50;;;9.15;;
78053;SDS011;67726;45.636;11.752;2023-03-01T04:02:43;18.60;;;8.47;;
78053;SDS011;67726;45.636;11.752;2023-03-01T04:05:11;16.85;;;8.43;;
78053;SDS011;67726;45.636;11.752;2023-03-01T04:07:39;18.70;;;8.68;;
78053;SDS011;67726;45.636;11.752;2023-03-01T04:10:07;16.60;;;8.10;;
78053;SDS011;67726;45.636;11.752;2023-03-01T04:12:34;19.55;;;8.52;;
78053;SDS011;67726;45.636;11.752;2023-03-01T04:15:01;16.43;;;7.70;;
78053;SDS011;67726;45.636;11.752;2023-03-01T04:17:37;17.83;;;8.25;;
78053;SDS011;67726;45.636;11.752;2023-03-01T04:20:04;21.85;;;9.43;;
78053;SDS011;67726;45.636;11.752;2023-03-01T04:22:30;18.40;;;8.75;;
78053;SDS011;67726;45.636;11.752;2023-03-01T04:24:57;18.15;;;8.88;;
78053;SDS011;67726;45.636;11.752;2023-03-01T04:27:23;18.17;;;8.17;;
78053;SDS011;67726;45.636;11.752;2023-03-01T04:29:48;20.90;;;9.50;;
78053;SDS011;67726;45.636;11.752;2023-03-01T04:32:14;19.50;;;9.10;;
78053;SDS011;67726;45.636;11.752;2023-03-01T04:34:41;19.30;;;9.23;;
78053;SDS011;67726;45.636;11.752;2023-03-01T04:37:06;16.47;;;8.67;;
78053;SDS011;67726;45.636;11.752;2023-03-01T04:39:33;18.85;;;9.30;;
78053;SDS011;67726;45.636;11.752;2023-03-01T04:42:10;21.85;;;9.65;;
78053;SDS011;67726;45.636;11.752;2023-03-01T04:44:37;18.88;;;8.50;;
78053;SDS011;67726;45.636;11.752;2023-03-01T04:47:02;17.60;;;8.47;;
78053;SDS011;67726;45.636;11.752;2023-03-01T04:49:28;20.80;;;8.48;;
78053;SDS011;67726;45.636;11.752;2023-03-01T04:51:54;20.47;;;8.53;;
78053;SDS011;67726;45.636;11.752;2023-03-01T04:54:19;18.30;;;8.43;;
78053;SDS011;67726;45.636;11.752;2023-03-01T04:56:45;16.20;;;8.17;;
78053;SDS011;67726;45.636;11.752;2023-03-01T04:59:11;15.90;;;8.23;;
78053;SDS011;67726;45.636;11.752;2023-03-01T05:01:37;16.40;;;8.07;;
78053;SDS011;67726;45.636;11.752;2023-03-01T05:04:03;17.25;;;7.85;;
78053;SDS011;67726;45.636;11.752;2023-03-01T05:06:30;19.85;;;8.38;;
78053;SDS011;67726;45.636;11.752;2023-03-01T05:08:56;17.20;;;8.05;;
78053;SDS011;67726;45.636;11.752;2023-03-01T05:11:22;16.38;;;9.15;;
78053;SDS011;67726;45.636;11.752;2023-03-01T05:13:48;19.07;;;10.07;;
78053;SDS011;67726;45.636;11.752;2023-03-01T05:16:19;19.02;;;8.80;;
78053;SDS011;67726;45.636;11.752;2023-03-01T05:18:45;19.90;;;9.40;;
78053;SDS011;67726;45.636;11.752;2023-03-01T05:21:12;19.27;;;9.20;;
78053;SDS011;67726;45.636;11.752;2023-03-01T05:23:41;18.20;;;9.15;;
78053;SDS011;67726;45.636;11.752;2023-03-01T05:26:07;19.20;;;9.03;;
78053;SDS011;67726;45.636;11.752;2023-03-01T05:28:33;17.33;;;8.83;;
78053;SDS011;67726;45.636;11.752;2023-03-01T05:30:59;16.67;;;7.22;;
78053;SDS011;67726;45.636;11.752;2023-03-01T05:33:25;13.18;;;6.70;;
78053;SDS011;67726;45.636;11.752;2023-03-01T05:35:52;13.35;;;6.15;;
78053;SDS011;67726;45.636;11.752;2023-03-01T05:38:18;14.13;;;5.90;;
78053;SDS011;67726;45.636;11.752;2023-03-01T05:40:46;14.13;;;6.35;;
78053;SDS011;67726;45.636;11.752;2023-03-01T05:43:14;13.18;;;6.47;;
78053;SDS011;67726;45.636;11.752;2023-03-01T05:45:41;14.38;;;6.90;;
78053;SDS011;67726;45.636;11.752;2023-03-01T05:48:07;17.73;;;7.27;;
78053;SDS011;67726;45.636;11.752;2023-03-01T05:50:34;15.98;;;8.20;;
78053;SDS011;67726;45.636;11.752;2023-03-01T05:55:33;18.90;;;8.80;;
78053;SDS011;67726;45.636;11.752;2023-03-01T05:58:00;19.92;;;9.50;;
78053;SDS011;67726;45.636;11.752;2023-03-01T06:00:27;19.03;;;10.60;;
78053;SDS011;67726;45.636;11.752;2023-03-01T06:02:54;20.88;;;9.32;;
78053;SDS011;67726;45.636;11.752;2023-03-01T06:05:21;19.35;;;9.60;;
78053;SDS011;67726;45.636;11.752;2023-03-01T06:07:47;16.98;;;8.75;;
78053;SDS011;67726;45.636;11.752;2023-03-01T06:10:13;18.92;;;9.60;;
78053;SDS011;67726;45.636;11.752;2023-03-01T06:12:40;20.43;;;9.97;;
78053;SDS011;67726;45.636;11.752;2023-03-01T06:15:07;19.58;;;10.20;;
78053;SDS011;67726;45.636;11.752;2023-03-01T06:17:35;24.02;;;11.50;;
78053;SDS011;67726;45.636;11.752;2023-03-01T06:20:05;21.67;;;10.82;;
78053;SDS011;67726;45.636;11.752;2023-03-01T06:22:35;22.10;;;10.85;;
78053;SDS011;67726;45.636;11.752;2023-03-01T06:25:01;19.87;;;9.30;;
78053;SDS011;67726;45.636;11.752;2023-03-01T06:27:27;19.05;;;8.13;;
78053;SDS011;67726;45.636;11.752;2023-03-01T06:29:53;17.70;;;7.73;;
78053;SDS011;67726;45.636;11.752;2023-03-01T06:32:19;13.18;;;7.43;;
78053;SDS011;67726;45.636;11.752;2023-03-01T06:34:44;12.87;;;7.10;;
78053;SDS011;67726;45.636;11.752;2023-03-01T06:37:10;15.82;;;8.00;;
78053;SDS011;67726;45.636;11.752;2023-03-01T06:39:36;14.27;;;7.97;;
78053;SDS011;67726;45.636;11.752;2023-03-01T06:42:02;17.83;;;9.03;;
78053;SDS011;67726;45.636;11.752;2023-03-01T06:44:28;17.35;;;8.95;;
78053;SDS011;67726;45.636;11.752;2023-03-01T06:46:54;17.67;;;8.33;;
78053;SDS011;67726;45.636;11.752;2023-03-01T06:49:20;19.42;;;8.18;;
78053;SDS011;67726;45.636;11.752;2023-03-01T06:51:46;20.23;;;9.82;;
78053;SDS011;67726;45.636;11.752;2023-03-01T06:54:11;20.80;;;9.63;;
78053;SDS011;67726;45.636;11.752;2023-03-01T06:56:37;24.48;;;11.25;;
78053;SDS011;67726;45.636;11.752;2023-03-01T06:59:04;21.23;;;11.32;;
78053;SDS011;67726;45.636;11.752;2023-03-01T07:01:30;19.60;;;10.03;;
78053;SDS011;67726;45.636;11.752;2023-03-01T07:03:56;18.05;;;10.07;;
78053;SDS011;67726;45.636;11.752;2023-03-01T07:06:22;21.88;;;11.45;;
78053;SDS011;67726;45.636;11.752;2023-03-01T07:08:48;21.67;;;11.30;;
78053;SDS011;67726;45.636;11.752;2023-03-01T07:11:14;21.33;;;11.40;;
78053;SDS011;67726;45.636;11.752;2023-03-01T07:13:40;23.92;;;11.45;;
78053;SDS011;67726;45.636;11.752;2023-03-01T07:16:06;25.27;;;11.88;;
78053;SDS011;67726;45.636;11.752;2023-03-01T07:18:32;24.20;;;12.55;;
78053;SDS011;67726;45.636;11.752;2023-03-01T07:21:03;37.53;;;15.83;;
78053;SDS011;67726;45.636;11.752;2023-03-01T07:23:32;31.98;;;15.98;;
78053;SDS011;67726;45.636;11.752;2023-03-01T07:25:58;36.05;;;16.55;;
78053;SDS011;67726;45.636;11.752;2023-03-01T07:28:23;21.97;;;13.00;;
78053;SDS011;67726;45.636;11.752;2023-03-01T07:30:49;25.40;;;12.63;;
78053;SDS011;67726;45.636;11.752;2023-03-01T07:33:17;22.77;;;11.73;;
78053;SDS011;67726;45.636;11.752;2023-03-01T07:35:42;22.50;;;11.48;;
78053;SDS011;67726;45.636;11.752;2023-03-01T07:38:08;24.77;;;11.80;;
78053;SDS011;67726;45.636;11.752;2023-03-01T07:40:34;21.20;;;11.27;;
78053;SDS011;67726;45.636;11.752;2023-03-01T07:43:00;15.77;;;9.27;;
78053;SDS011;67726;45.636;11.752;2023-03-01T07:45:26;18.85;;;9.40;;
78053;SDS011;67726;45.636;11.752;2023-03-01T07:47:52;18.37;;;9.57;;
78053;SDS011;67726;45.636;11.752;2023-03-01T07:50:18;18.70;;;9.35;;
78053;SDS011;67726;45.636;11.752;2023-03-01T07:52:45;17.73;;;9.60;;
78053;SDS011;67726;45.636;11.752;2023-03-01T07:55:11;17.67;;;9.02;;
78053;SDS011;67726;45.636;11.752;2023-03-01T07:57:37;19.70;;;9.40;;
78053;SDS011;67726;45.636;11.752;2023-03-01T08:00:03;16.88;;;8.55;;
78053;SDS011;67726;45.636;11.752;2023-03-01T08:02:30;14.80;;;7.63;;
78053;SDS011;67726;45.636;11.752;2023-03-01T08:04:56;16.73;;;8.63;;
78053;SDS011;67726;45.636;11.752;2023-03-01T08:07:22;16.65;;;8.40;;
78053;SDS011;67726;45.636;11.752;2023-03-01T08:09:47;16.57;;;8.77;;
78053;SDS011;67726;45.636;11.752;2023-03-01T08:12:13;19.55;;;9.35;;
78053;SDS011;67726;45.636;11.752;2023-03-01T08:14:41;18.17;;;9.35;;
78053;SDS011;67726;45.636;11.752;2023-03-01T08:17:06;16.97;;;8.80;;
78053;SDS011;67726;45.636;11.752;2023-03-01T08:19:32;16.63;;;8.93;;
78053;SDS011;67726;45.636;11.752;2023-03-01T08:21:59;14.80;;;8.18;;
78053;SDS011;67726;45.636;11.752;2023-03-01T08:24:28;16.63;;;8.70;;
78053;SDS011;67726;45.636;11.752;2023-03-01T08:26:55;15.77;;;7.82;;
78053;SDS011;67726;45.636;11.752;2023-03-01T08:29:20;12.38;;;6.93;;
78053;SDS011;67726;45.636;11.752;2023-03-01T08:31:47;14.40;;;7.18;;
78053;SDS011;67726;45.636;11.752;2023-03-01T08:34:16;14.05;;;6.97;;
78053;SDS011;67726;45.636;11.752;2023-03-01T08:36:43;13.60;;;7.03;;
78053;SDS011;67726;45.636;11.752;2023-03-01T08:39:12;14.45;;;7.00;;
78053;SDS011;67726;45.636;11.752;2023-03-01T08:41:39;14.90;;;8.13;;
78053;SDS011;67726;45.636;11.752;2023-03-01T08:44:06;14.32;;;7.72;;
78053;SDS011;67726;45.636;11.752;2023-03-01T08:46:33;12.95;;;7.22;;
78053;SDS011;67726;45.636;11.752;2023-03-01T08:49:08;13.30;;;7.20;;
78053;SDS011;67726;45.636;11.752;2023-03-01T08:51:38;14.02;;;7.35;;
78053;SDS011;67726;45.636;11.752;2023-03-01T08:54:05;13.02;;;7.03;;
78053;SDS011;67726;45.636;11.752;2023-03-01T08:56:32;15.20;;;7.03;;
78053;SDS011;67726;45.636;11.752;2023-03-01T08:58:58;13.90;;;7.03;;
78053;SDS011;67726;45.636;11.752;2023-03-01T09:01:24;15.87;;;7.97;;
78053;SDS011;67726;45.636;11.752;2023-03-01T09:03:50;12.77;;;6.82;;
78053;SDS011;67726;45.636;11.752;2023-03-01T09:06:16;13.15;;;7.38;;
78053;SDS011;67726;45.636;11.752;2023-03-01T09:08:45;12.43;;;6.60;;
78053;SDS011;67726;45.636;11.752;2023-03-01T09:11:13;12.98;;;6.32;;
78053;SDS011;67726;45.636;11.752;2023-03-01T09:13:41;13.13;;;6.90;;
78053;SDS011;67726;45.636;11.752;2023-03-01T09:16:08;13.82;;;5.63;;
78053;SDS011;67726;45.636;11.752;2023-03-01T09:18:35;11.82;;;6.57;;
78053;SDS011;67726;45.636;11.752;2023-03-01T09:21:02;11.00;;;5.80;;
78053;SDS011;67726;45.636;11.752;2023-03-01T09:23:39;9.55;;;4.80;;
78053;SDS011;67726;45.636;11.752;2023-03-01T09:26:07;11.75;;;5.38;;
78053;SDS011;67726;45.636;11.752;2023-03-01T09:28:34;8.95;;;5.18;;
78053;SDS011;67726;45.636;11.752;2023-03-01T09:31:01;10.60;;;5.35;;
78053;SDS011;67726;45.636;11.752;2023-03-01T09:33:28;11.97;;;5.60;;
78053;SDS011;67726;45.636;11.752;2023-03-01T09:38:28;9.30;;;4.55;;
78053;SDS011;67726;45.636;11.752;2023-03-01T09:40:55;10.07;;;5.18;;
78053;SDS011;67726;45.636;11.752;2023-03-01T09:43:26;13.80;;;5.13;;
78053;SDS011;67726;45.636;11.752;2023-03-01T09:46:03;10.30;;;4.93;;
78053;SDS011;67726;45.636;11.752;2023-03-01T09:48:33;9.88;;;4.88;;
78053;SDS011;67726;45.636;11.752;2023-03-01T09:51:25;10.93;;;5.20;;
78053;SDS011;67726;45.636;11.752;2023-03-01T09:53:54;8.48;;;5.47;;
78053;SDS011;67726;45.636;11.752;2023-03-01T09:56:24;10.13;;;5.65;;
78053;SDS011;67726;45.636;11.752;2023-03-01T10:07:17;10.05;;;5.30;;
78053;SDS011;67726;45.636;11.752;2023-03-01T10:10:05;12.73;;;5.80;;
78053;SDS011;67726;45.636;11.752;2023-03-01T10:12:37;9.27;;;4.70;;
78053;SDS011;67726;45.636;11.752;2023-03-01T10:15:12;10.27;;;4.82;;
78053;SDS011;67726;45.636;11.752;2023-03-01T10:17:50;14.65;;;5.03;;
78053;SDS011;67726;45.636;11.752;2023-03-01T10:23:07;7.60;;;4.18;;
78053;SDS011;67726;45.636;11.752;2023-03-01T10:31:00;8.85;;;4.68;;
78053;SDS011;67726;45.636;11.752;2023-03-01T10:33:29;10.20;;;4.87;;
78053;SDS011;67726;45.636;11.752;2023-03-01T10:35:57;16.38;;;5.65;;
78053;SDS011;67726;45.636;11.752;2023-03-01T10:38:23;8.57;;;4.70;;
78053;SDS011;67726;45.636;11.752;2023-03-01T10:40:59;12.50;;;4.77;;
78053;SDS011;67726;45.636;11.752;2023-03-01T10:43:47;9.52;;;3.90;;
78053;SDS011;67726;45.636;11.752;2023-03-01T10:49:14;13.35;;;4.15;;
78053;SDS011;67726;45.636;11.752;2023-03-01T10:51:45;10.23;;;4.90;;
78053;SDS011;67726;45.636;11.752;2023-03-01T10:54:17;8.48;;;3.92;;
78053;SDS011;67726;45.636;11.752;2023-03-01T10:56:54;8.25;;;4.20;;
78053;SDS011;67726;45.636;11.752;2023-03-01T10:59:25;8.52;;;4.13;;
78053;SDS011;67726;45.636;11.752;2023-03-01T11:02:15;9.07;;;4.15;;
78053;SDS011;67726;45.636;11.752;2023-03-01T11:07:23;12.55;;;5.35;;
78053;SDS011;67726;45.636;11.752;2023-03-01T11:09:49;11.55;;;4.85;;
78053;SDS011;67726;45.636;11.752;2023-03-01T11:12:15;11.03;;;5.40;;
78053;SDS011;67726;45.636;11.752;2023-03-01T11:14:51;12.57;;;5.25;;
78053;SDS011;67726;45.636;11.752;2023-03-01T11:22:38;15.10;;;5.67;;
78053;SDS011;67726;45.636;11.752;2023-03-01T11:25:14;13.32;;;6.28;;
78053;SDS011;67726;45.636;11.752;2023-03-01T11:27:43;11.65;;;5.50;;
78053;SDS011;67726;45.636;11.752;2023-03-01T11:30:27;15.05;;;6.40;;
78053;SDS011;67726;45.636;11.752;2023-03-01T11:35:34;13.50;;;4.73;;
78053;SDS011;67726;45.636;11.752;2023-03-01T11:38:21;10.07;;;5.18;;
78053;SDS011;67726;45.636;11.752;2023-03-01T11:41:05;11.98;;;4.68;;
78053;SDS011;67726;45.636;11.752;2023-03-01T11:52:18;13.27;;;4.20;;
78053;SDS011;67726;45.636;11.752;2023-03-01T11:55:25;19.10;;;3.85;;
78053;SDS011;67726;45.636;11.752;2023-03-01T12:08:17;9.70;;;4.20;;
78053;SDS011;67726;45.636;11.752;2023-03-01T12:19:54;9.32;;;3.65;;
78053;SDS011;67726;45.636;11.752;2023-03-01T12:36:41;12.75;;;4.97;;
78053;SDS011;67726;45.636;11.752;2023-03-01T12:43:00;12.10;;;4.78;;
78053;SDS011;67726;45.636;11.752;2023-03-01T12:45:16;15.17;;;4.40;;
78053;SDS011;67726;45.636;11.752;2023-03-01T12:51:11;15.95;;;4.68;;
78053;SDS011;67726;45.636;11.752;2023-03-01T12:53:45;11.30;;;4.30;;
78053;SDS011;67726;45.636;11.752;2023-03-01T12:56:19;14.20;;;5.00;;
78053;SDS011;67726;45.636;11.752;2023-03-01T12:58:54;11.93;;;4.90;;
78053;SDS011;67726;45.636;11.752;2023-03-01T13:17:58;14.48;;;6.15;;
78053;SDS011;67726;45.636;11.752;2023-03-01T13:31:09;15.50;;;6.53;;
78053;SDS011;67726;45.636;11.752;2023-03-01T13:33:55;21.15;;;7.25;;
78053;SDS011;67726;45.636;11.752;2023-03-01T13:38:55;11.93;;;5.83;;
78053;SDS011;67726;45.636;11.752;2023-03-01T13:46:58;13.85;;;5.43;;
78053;SDS011;67726;45.636;11.752;2023-03-01T13:49:29;12.82;;;5.75;;
78053;SDS011;67726;45.636;11.752;2023-03-01T13:52:52;15.17;;;6.87;;
78053;SDS011;67726;45.636;11.752;2023-03-01T13:57:49;19.45;;;7.38;;
78053;SDS011;67726;45.636;11.752;2023-03-01T14:00:38;17.00;;;6.68;;
78053;SDS011;67726;45.636;11.752;2023-03-01T14:03:13;16.35;;;6.22;;
78053;SDS011;67726;45.636;11.752;2023-03-01T14:08:27;15.18;;;5.38;;
78053;SDS011;67726;45.636;11.752;2023-03-01T14:13:39;10.82;;;5.68;;
78053;SDS011;67726;45.636;11.752;2023-03-01T14:16:15;12.82;;;5.70;;
78053;SDS011;67726;45.636;11.752;2023-03-01T14:19:00;13.47;;;6.33;;
78053;SDS011;67726;45.636;11.752;2023-03-01T14:21:27;12.18;;;5.53;;
78053;SDS011;67726;45.636;11.752;2023-03-01T14:23:54;16.35;;;6.00;;
78053;SDS011;67726;45.636;11.752;2023-03-01T14:26:22;14.90;;;6.55;;
78053;SDS011;67726;45.636;11.752;2023-03-01T14:28:48;11.23;;;5.93;;
78053;SDS011;67726;45.636;11.752;2023-03-01T14:34:01;15.18;;;6.63;;
78053;SDS011;67726;45.636;11.752;2023-03-01T14:36:28;18.70;;;7.25;;
78053;SDS011;67726;45.636;11.752;2023-03-01T14:39:02;16.70;;;7.57;;
78053;SDS011;67726;45.636;11.752;2023-03-01T14:41:42;16.80;;;7.60;;
78053;SDS011;67726;45.636;11.752;2023-03-01T14:44:11;17.43;;;7.77;;
78053;SDS011;67726;45.636;11.752;2023-03-01T14:46:41;22.02;;;8.50;;
78053;SDS011;67726;45.636;11.752;2023-03-01T14:51:37;16.20;;;6.70;;
78053;SDS011;67726;45.636;11.752;2023-03-01T14:54:10;19.10;;;7.50;;
78053;SDS011;67726;45.636;11.752;2023-03-01T14:56:47;20.48;;;7.57;;
78053;SDS011;67726;45.636;11.752;2023-03-01T14:59:12;18.00;;;6.72;;
78053;SDS011;67726;45.636;11.752;2023-03-01T15:01:39;14.10;;;6.27;;
78053;SDS011;67726;45.636;11.752;2023-03-01T15:04:08;14.98;;;7.72;;
78053;SDS011;67726;45.636;11.752;2023-03-01T15:06:37;16.52;;;7.45;;
78053;SDS011;67726;45.636;11.752;2023-03-01T15:09:03;15.05;;;7.00;;
78053;SDS011;67726;45.636;11.752;2023-03-01T15:11:30;15.15;;;6.97;;
78053;SDS011;67726;45.636;11.752;2023-03-01T15:13:57;18.23;;;6.87;;
78053;SDS011;67726;45.636;11.752;2023-03-01T15:16:24;19.52;;;9.45;;
78053;SDS011;67726;45.636;11.752;2023-03-01T15:18:55;18.23;;;10.32;;
78053;SDS011;67726;45.636;11.752;2023-03-01T15:21:27;20.50;;;9.02;;
78053;SDS011;67726;45.636;11.752;2023-03-01T15:24:06;20.00;;;8.23;;
78053;SDS011;67726;45.636;11.752;2023-03-01T15:26:52;18.30;;;8.43;;
78053;SDS011;67726;45.636;11.752;2023-03-01T15:29:23;16.70;;;6.70;;
78053;SDS011;67726;45.636;11.752;2023-03-01T15:31:59;15.05;;;7.10;;
78053;SDS011;67726;45.636;11.752;2023-03-01T15:34:29;15.07;;;6.90;;
78053;SDS011;67726;45.636;11.752;2023-03-01T15:37:03;15.15;;;7.53;;
78053;SDS011;67726;45.636;11.752;2023-03-01T15:39:41;12.30;;;6.10;;
78053;SDS011;67726;45.636;11.752;2023-03-01T15:42:35;14.30;;;6.40;;
78053;SDS011;67726;45.636;11.752;2023-03-01T15:45:09;13.68;;;7.13;;
78053;SDS011;67726;45.636;11.752;2023-03-01T15:47:39;11.13;;;5.95;;
78053;SDS011;67726;45.636;11.752;2023-03-01T15:50:27;13.38;;;6.00;;
78053;SDS011;67726;45.636;11.752;2023-03-01T15:52:53;14.17;;;6.17;;
78053;SDS011;67726;45.636;11.752;2023-03-01T15:55:21;18.13;;;7.10;;
78053;SDS011;67726;45.636;11.752;2023-03-01T15:57:57;18.65;;;7.35;;
78053;SDS011;67726;45.636;11.752;2023-03-01T16:00:28;16.52;;;7.20;;
78053;SDS011;67726;45.636;11.752;2023-03-01T16:02:54;13.17;;;7.07;;
78053;SDS011;67726;45.636;11.752;2023-03-01T16:07:50;14.20;;;7.07;;
78053;SDS011;67726;45.636;11.752;2023-03-01T16:10:16;18.45;;;9.15;;
78053;SDS011;67726;45.636;11.752;2023-03-01T16:12:42;14.93;;;6.17;;
78053;SDS011;67726;45.636;11.752;2023-03-01T16:15:12;13.88;;;6.28;;
78053;SDS011;67726;45.636;11.752;2023-03-01T16:17:56;12.98;;;6.03;;
78053;SDS011;67726;45.636;11.752;2023-03-01T16:20:23;9.33;;;5.13;;
78053;SDS011;67726;45.636;11.752;2023-03-01T16:22:50;9.23;;;4.60;;
78053;SDS011;67726;45.636;11.752;2023-03-01T16:25:16;7.32;;;3.38;;
78053;SDS011;67726;45.636;11.752;2023-03-01T16:27:44;8.90;;;4.03;;
78053;SDS011;67726;45.636;11.752;2023-03-01T16:30:12;8.27;;;4.43;;
78053;SDS011;67726;45.636;11.752;2023-03-01T16:32:42;8.53;;;4.23;;
78053;SDS011;67726;45.636;11.752;2023-03-01T16:35:10;9.88;;;5.10;;
78053;SDS011;67726;45.636;11.752;2023-03-01T16:37:38;9.90;;;4.90;;
78053;SDS011;67726;45.636;11.752;2023-03-01T16:40:04;12.32;;;5.78;;
78053;SDS011;67726;45.636;11.752;2023-03-01T16:42:35;12.32;;;5.85;;
78053;SDS011;67726;45.636;11.752;2023-03-01T16:45:01;11.53;;;6.07;;
78053;SDS011;67726;45.636;11.752;2023-03-01T16:47:27;14.85;;;7.07;;
78053;SDS011;67726;45.636;11.752;2023-03-01T16:49:53;14.82;;;7.43;;
78053;SDS011;67726;45.636;11.752;2023-03-01T16:52:19;17.27;;;8.07;;
78053;SDS011;67726;45.636;11.752;2023-03-01T16:54:46;13.63;;;6.47;;
78053;SDS011;67726;45.636;11.752;2023-03-01T16:57:12;16.63;;;7.57;;